Time;durP1;ratioP1;P1;durP2;ratioP2;P2;SDS_P1;SDS_P2;PMS_P1;PMS_P2;Temp;Humidity;BMP_temperature;BMP_pressure;BME280_temperature;BME280_humidity;BME280_pressure;Samples;Min_cycle;Max_cycle;Signal;HPM_P1;HPM_P2
2021/11/17 02:25:50;;;;;;;63.77;36.60;;;;;;;-1.69;58.35;100616.11;1746298;82;21072;-39
2021/11/17 02:28:52;;;;;;;63.83;36.70;;;;;;;-1.68;58.40;100612.93;1746428;82;21052;-39
2021/11/17 02:31:40;;;;;;;59.75;35.00;;;;;;;-1.72;58.45;100612.63;1735827;82;21499;-39
2021/11/17 02:34:28;;;;;;;64.60;35.10;;;;;;;-1.78;58.38;100621.06;1735225;82;21076;-39
2021/11/17 02:37:15;;;;;;;61.53;35.13;;;;;;;-1.80;58.45;100614.41;1736005;82;21121;-39
2021/11/17 02:40:05;;;;;;;58.52;34.70;;;;;;;-1.80;58.59;100613.88;1734851;82;21024;-38
2021/11/17 02:42:46;;;;;;;61.85;35.03;;;;;;;-1.82;58.78;100610.66;1735852;82;20945;-38
2021/11/17 02:45:30;;;;;;;62.03;34.53;;;;;;;-1.80;58.95;100611.22;1735312;82;21036;-38
2021/11/17 02:48:18;;;;;;;66.40;35.38;;;;;;;-1.79;58.90;100612.00;1735929;82;21056;-39
2021/11/17 02:51:20;;;;;;;63.80;35.35;;;;;;;-1.83;58.96;100610.89;1710798;82;21150;-38
2021/11/17 02:53:55;;;;;;;59.63;34.43;;;;;;;-1.83;59.10;100613.55;1734894;82;20973;-38
2021/11/17 02:56:48;;;;;;;61.77;35.03;;;;;;;-1.87;59.63;100613.25;1735774;82;20989;-38
2021/11/17 02:59:50;;;;;;;65.85;36.63;;;;;;;-1.88;59.81;100612.96;1718515;82;21028;-38
2021/11/17 03:02:43;;;;;;;57.05;35.17;;;;;;;-1.90;59.65;100612.94;1735738;82;21053;-38
2021/11/17 03:05:32;;;;;;;63.28;35.00;;;;;;;-1.91;59.67;100608.67;1735826;82;21716;-39
2021/11/17 03:08:28;;;;;;;62.00;34.03;;;;;;;-1.86;59.36;100617.52;1762551;81;20980;-38
2021/11/17 03:11:20;;;;;;;59.80;34.67;;;;;;;-1.84;59.12;100615.40;1766252;81;21024;-39
2021/11/17 03:14:11;;;;;;;60.12;34.50;;;;;;;-1.87;59.14;100607.13;1766160;81;21012;-38
2021/11/17 03:17:05;;;;;;;60.20;33.55;;;;;;;-1.91;59.26;100609.48;1766078;81;21032;-39
2021/11/17 03:19:58;;;;;;;58.95;33.13;;;;;;;-1.90;59.13;100604.97;1759704;81;21081;-39
2021/11/17 03:22:59;;;;;;;62.67;35.03;;;;;;;-1.88;59.00;100608.17;1743530;81;21040;-39
2021/11/17 03:25:43;;;;;;;58.75;35.10;;;;;;;-1.92;59.03;100605.20;1735935;82;21503;-39
2021/11/17 03:28:20;;;;;;;62.17;35.65;;;;;;;-1.95;58.93;100602.25;1736293;82;21048;-38
2021/11/17 03:31:01;;;;;;;58.83;33.48;;;;;;;-1.92;58.80;100605.73;1732955;82;21537;-39
2021/11/17 03:33:49;;;;;;;62.70;34.80;;;;;;;-1.89;58.72;100606.59;1735495;82;21777;-38
2021/11/17 03:36:54;;;;;;;60.55;33.63;;;;;;;-1.89;58.66;100603.37;1750206;81;21044;-38
2021/11/17 03:39:52;;;;;;;62.03;34.70;;;;;;;-1.90;58.65;100613.75;1748453;81;21377;-38
2021/11/17 03:42:44;;;;;;;61.18;36.03;;;;;;;-1.89;58.50;100604.70;1718719;82;21609;-38
2021/11/17 03:45:37;;;;;;;63.17;34.98;;;;;;;-1.81;58.24;100604.81;1718689;83;21044;-38
2021/11/17 03:48:31;;;;;;;63.92;34.83;;;;;;;-1.77;58.09;100607.25;1745256;81;21076;-38
2021/11/17 03:51:09;;;;;;;61.45;35.00;;;;;;;-1.77;57.99;100604.59;1736667;81;20940;-39
2021/11/17 03:54:05;;;;;;;58.40;33.90;;;;;;;-1.79;58.06;100600.04;1752645;81;21039;-38
2021/11/17 03:57:06;;;;;;;58.75;33.10;;;;;;;-1.76;57.92;100597.70;1730379;81;21538;-40
2021/11/17 04:00:01;;;;;;;65.32;34.50;;;;;;;-1.71;57.83;100590.84;1747014;81;20968;-38
2021/11/17 04:02:45;;;;;;;57.53;33.50;;;;;;;-1.69;57.78;100598.05;1754863;81;21140;-39
2021/11/17 04:05:26;;;;;;;62.05;33.18;;;;;;;-1.68;57.87;100593.80;1753731;81;21067;-38
2021/11/17 04:08:16;;;;;;;59.33;32.17;;;;;;;-1.66;57.93;100577.61;1782085;80;20967;-39
2021/11/17 04:10:51;;;;;;;57.40;33.20;;;;;;;-1.63;57.95;100581.89;1760447;80;21562;-39
2021/11/17 04:13:39;;;;;;;63.08;33.65;;;;;;;-1.57;57.91;100591.54;1754377;81;21052;-38
2021/11/17 04:16:46;;;;;;;55.35;31.95;;;;;;;-1.51;57.90;100593.20;1752414;81;21819;-38
2021/11/17 04:19:56;;;;;;;54.40;31.82;;;;;;;-1.51;57.86;100583.90;1754794;81;21023;-38
2021/11/17 04:22:41;;;;;;;57.75;32.90;;;;;;;-1.57;58.03;100578.24;1753907;81;20959;-39
2021/11/17 04:25:19;;;;;;;58.73;32.00;;;;;;;-1.61;58.23;100575.01;1754866;81;21000;-39
2021/11/17 04:28:09;;;;;;;53.95;30.65;;;;;;;-1.58;58.27;100583.28;1754411;81;21609;-39
2021/11/17 04:31:04;;;;;;;51.37;29.85;;;;;;;-1.57;58.17;100574.26;1753163;81;21119;-39
2021/11/17 04:33:48;;;;;;;53.15;31.48;;;;;;;-1.54;58.06;100576.92;1753078;81;21039;-38
2021/11/17 04:37:02;;;;;;;51.15;30.27;;;;;;;-1.56;58.07;100577.72;1754772;81;22105;-38
2021/11/17 04:39:37;;;;;;;55.65;30.17;;;;;;;-1.53;57.98;100575.36;1754330;81;21047;-38
2021/11/17 04:42:24;;;;;;;48.95;30.50;;;;;;;-1.54;57.95;100574.27;1754721;81;21088;-38
2021/11/17 04:45:16;;;;;;;52.40;29.15;;;;;;;-1.55;57.96;100573.46;1754395;81;21171;-38
2021/11/17 04:48:11;;;;;;;50.80;30.12;;;;;;;-1.60;57.97;100568.12;1754574;81;21534;-38
2021/11/17 04:51:08;;;;;;;49.38;28.87;;;;;;;-1.65;58.13;100563.27;1753095;81;21515;-39
2021/11/17 04:53:58;;;;;;;49.35;29.37;;;;;;;-1.63;58.09;100561.95;1753661;81;21573;-38
2021/11/17 04:57:40;;;;;;;49.75;30.23;;;;;;;-1.60;57.96;100560.14;1753287;81;21036;-38
2021/11/17 05:00:27;;;;;;;49.60;28.60;;;;;;;-1.59;57.82;100563.05;1754602;81;21066;-38
2021/11/17 05:03:05;;;;;;;51.77;28.75;;;;;;;-1.68;57.87;100559.23;1753036;81;21546;-39
2021/11/17 05:05:43;;;;;;;50.58;29.02;;;;;;;-1.69;58.06;100557.62;1743808;81;21497;-38
2021/11/17 05:08:22;;;;;;;46.73;27.67;;;;;;;-1.71;58.06;100555.76;1719755;81;21035;-39
2021/11/17 05:11:15;;;;;;;47.70;28.60;;;;;;;-1.69;58.03;100558.95;1754451;81;21099;-38
2021/11/17 05:14:21;;;;;;;53.23;29.42;;;;;;;-1.68;57.86;100557.10;1748500;81;21187;-39
2021/11/17 05:17:10;;;;;;;49.77;28.73;;;;;;;-1.71;57.78;100553.09;1754734;81;20977;-38
2021/11/17 05:20:32;;;;;;;46.83;27.77;;;;;;;-1.78;57.80;100549.30;1754483;81;21039;-38
2021/11/17 05:23:13;;;;;;;49.73;28.98;;;;;;;-1.78;57.72;100555.13;1754749;81;21008;-38
2021/11/17 05:26:14;;;;;;;48.28;28.67;;;;;;;-1.81;57.69;100550.33;1753488;81;21047;-39
2021/11/17 05:29:07;;;;;;;46.58;28.00;;;;;;;-1.83;57.64;100548.43;1754648;81;21768;-38
2021/11/17 05:32:11;;;;;;;51.18;28.27;;;;;;;-1.82;57.62;100556.69;1754353;81;20953;-38
2021/11/17 05:34:49;;;;;;;52.83;28.42;;;;;;;-1.80;57.39;100551.94;1754293;81;21051;-38
2021/11/17 05:37:23;;;;;;;48.40;27.93;;;;;;;-1.79;57.26;100549.53;1754358;81;21048;-38
2021/11/17 05:40:05;;;;;;;47.50;27.90;;;;;;;-1.78;57.06;100552.47;1747917;81;21585;-39
2021/11/17 05:42:53;;;;;;;44.90;27.02;;;;;;;-1.83;57.12;100550.56;1753404;81;21152;-39
2021/11/17 05:45:42;;;;;;;48.63;27.45;;;;;;;-1.82;57.09;100550.05;1754359;81;21558;-39
2021/11/17 05:48:38;;;;;;;51.18;30.17;;;;;;;-1.84;57.04;100541.53;1755076;81;22224;-38
2021/11/17 05:51:22;;;;;;;46.80;27.13;;;;;;;-1.83;56.93;100541.78;1740953;81;21530;-38
2021/11/17 05:54:12;;;;;;;49.45;28.38;;;;;;;-1.84;56.92;100545.52;1748377;81;21115;-38
2021/11/17 05:56:46;;;;;;;49.45;27.65;;;;;;;-1.87;57.09;100545.48;1753638;81;21793;-38
2021/11/17 05:59:52;;;;;;;45.78;25.75;;;;;;;-1.85;57.18;100548.70;1754875;81;20976;-38
2021/11/17 06:02:53;;;;;;;43.80;25.02;;;;;;;-1.82;57.26;100546.05;1754618;81;21051;-38
2021/11/17 06:05:19;;;;;;;45.35;25.20;;;;;;;-1.81;57.65;100545.02;1754793;81;21052;-38
2021/11/17 06:07:45;;;;;;;43.23;25.10;;;;;;;-1.77;57.73;100548.25;1754559;80;21035;-38
2021/11/17 06:10:16;;;;;;;37.85;22.90;;;;;;;-1.76;58.05;100546.40;1754730;81;21092;-38
2021/11/17 06:12:42;;;;;;;41.68;25.25;;;;;;;-1.77;58.38;100536.81;1772119;80;20992;-38
2021/11/17 06:15:12;;;;;;;48.30;25.88;;;;;;;-1.85;58.74;100534.60;1785909;80;21031;-39
2021/11/17 06:17:39;;;;;;;41.70;25.17;;;;;;;-1.86;58.82;100529.01;1785769;80;21044;-38
2021/11/17 06:20:12;;;;;;;41.33;23.85;;;;;;;-1.89;59.17;100540.14;1785917;80;21056;-38
2021/11/17 06:22:42;;;;;;;44.18;24.07;;;;;;;-1.98;59.43;100543.74;1785615;80;21059;-38
2021/11/17 06:25:10;;;;;;;42.75;23.85;;;;;;;-2.06;59.86;100539.39;1781270;79;28279;-38
2021/11/17 06:27:40;;;;;;;41.25;24.65;;;;;;;-2.07;60.10;100539.11;1779683;79;21106;-38
2021/11/17 06:30:10;;;;;;;45.85;24.70;;;;;;;-2.06;60.38;100546.03;1785771;80;21541;-39
2021/11/17 06:32:37;;;;;;;41.00;23.80;;;;;;;-2.08;60.46;100544.17;1785658;80;21061;-38
2021/11/17 06:35:05;;;;;;;42.95;24.32;;;;;;;-2.04;60.62;100542.62;1785892;80;21096;-38
2021/11/17 06:37:32;;;;;;;40.23;24.12;;;;;;;-2.03;60.86;100546.89;1783233;80;21031;-38
2021/11/17 06:40:00;;;;;;;40.20;24.20;;;;;;;-1.99;60.91;100550.66;1783021;80;21593;-38
2021/11/17 06:42:37;;;;;;;35.70;22.35;;;;;;;-2.03;61.28;100554.30;1783397;80;21012;-38
2021/11/17 06:45:25;;;;;;;49.30;24.80;;;;;;;-2.00;61.61;100551.70;1774023;80;20997;-39
2021/11/17 06:47:53;;;;;;;38.65;22.82;;;;;;;-1.99;61.84;100548.00;1783137;80;21911;-39
2021/11/17 06:50:20;;;;;;;38.83;22.22;;;;;;;-1.93;62.15;100549.64;1783011;80;20973;-38
2021/11/17 06:52:47;;;;;;;40.23;22.40;;;;;;;-1.91;62.32;100547.55;1783272;80;20940;-38
2021/11/17 06:55:14;;;;;;;36.68;21.42;;;;;;;-1.86;62.61;100546.28;1783039;80;21083;-38
2021/11/17 06:57:40;;;;;;;39.27;22.75;;;;;;;-1.80;62.71;100542.64;1783309;80;21046;-38
2021/11/17 07:00:14;;;;;;;38.85;23.10;;;;;;;-1.70;62.76;100540.09;1783195;80;21120;-38
2021/11/17 07:02:41;;;;;;;37.60;21.80;;;;;;;-1.59;62.68;100545.77;1783394;80;21625;-39
2021/11/17 07:05:09;;;;;;;38.30;22.95;;;;;;;-1.54;62.74;100548.48;1783157;80;21007;-38
2021/11/17 07:07:36;;;;;;;35.68;22.30;;;;;;;-1.47;62.81;100538.98;1759803;80;21038;-38
2021/11/17 07:10:05;;;;;;;38.15;21.85;;;;;;;-1.42;62.97;100541.70;1751950;81;21091;-38
2021/11/17 07:12:32;;;;;;;37.70;21.60;;;;;;;-1.34;62.90;100547.88;1752548;81;21100;-38
2021/11/17 07:14:59;;;;;;;38.88;22.55;;;;;;;-1.27;63.11;100548.49;1751952;81;21542;-38
2021/11/17 07:17:25;;;;;;;34.05;22.07;;;;;;;-1.17;63.02;100545.13;1752407;81;20909;-39
2021/11/17 07:19:52;;;;;;;38.40;22.30;;;;;;;-1.13;63.14;100547.02;1752174;81;21035;-38
2021/11/17 07:22:19;;;;;;;39.45;23.15;;;;;;;-1.00;63.23;100549.77;1752467;81;21087;-39
2021/11/17 07:24:45;;;;;;;37.67;22.73;;;;;;;-0.95;63.16;100556.47;1752330;81;21096;-38
2021/11/17 07:27:18;;;;;;;40.25;22.95;;;;;;;-0.80;63.16;100545.94;1752471;81;21035;-39
2021/11/17 07:29:40;;;;;;;35.38;22.87;;;;;;;-0.70;63.28;100544.69;1751639;81;21037;-39
2021/11/17 07:32:08;;;;;;;34.30;20.77;;;;;;;-0.51;63.25;100551.20;1752513;81;21087;-39
2021/11/17 07:34:34;;;;;;;37.53;21.68;;;;;;;-0.30;62.67;100548.13;1752218;81;21020;-38
2021/11/17 07:37:01;;;;;;;33.67;20.72;;;;;;;-0.15;62.26;100551.41;1743028;81;21139;-39
2021/11/17 07:39:27;;;;;;;34.78;20.48;;;;;;;0.01;62.06;100545.05;1736387;82;20941;-39
2021/11/17 07:41:54;;;;;;;32.33;20.55;;;;;;;0.21;61.87;100543.80;1736050;82;21036;-39
2021/11/17 07:44:22;;;;;;;35.25;21.48;;;;;;;0.42;61.47;100542.00;1736285;82;21036;-38
2021/11/17 07:46:54;;;;;;;33.55;20.17;;;;;;;0.66;61.05;100540.97;1736361;82;21068;-39
2021/11/17 07:52:07;;;;;;;33.42;19.85;;;;;;;1.08;59.96;100536.71;1805684;78;22546;-38
2021/11/17 07:54:34;;;;;;;32.50;20.15;;;;;;;1.13;59.42;100544.19;1779728;80;20982;-38
2021/11/17 07:57:03;;;;;;;32.75;19.80;;;;;;;1.27;59.16;100542.58;1779763;80;21497;-38
2021/11/17 07:59:30;;;;;;;31.65;18.82;;;;;;;1.46;58.61;100538.80;1779606;80;21525;-37
2021/11/17 08:02:00;;;;;;;36.77;19.20;;;;;;;1.62;58.11;100542.25;1779730;80;21006;-38
2021/11/17 08:04:33;;;;;;;33.80;20.02;;;;;;;1.72;57.80;100538.22;1779633;80;21017;-38
2021/11/17 08:06:55;;;;;;;32.20;19.17;;;;;;;1.88;57.90;100543.79;1780733;80;20917;-37
2021/11/17 08:09:23;;;;;;;33.35;19.23;;;;;;;2.09;57.86;100547.97;1783984;80;21090;-37
2021/11/17 08:11:50;;;;;;;35.03;18.90;;;;;;;2.33;57.41;100548.66;1783957;79;20910;-37
2021/11/17 08:14:16;;;;;;;31.15;18.42;;;;;;;2.49;56.32;100536.80;1778705;80;22154;-38
2021/11/17 08:16:44;;;;;;;33.15;19.50;;;;;;;2.59;56.13;100536.20;1783959;79;20988;-38
2021/11/17 08:19:11;;;;;;;33.38;19.42;;;;;;;2.76;56.04;100541.16;1783995;80;21021;-39
2021/11/17 08:21:37;;;;;;;29.80;18.67;;;;;;;2.90;55.14;100542.16;1784183;79;21132;-38
2021/11/17 08:24:05;;;;;;;29.07;17.62;;;;;;;2.93;54.64;100546.94;1783875;80;20909;-38
2021/11/17 08:26:31;;;;;;;30.48;18.70;;;;;;;2.95;54.51;100539.41;1783979;79;20922;-38
2021/11/17 08:28:58;;;;;;;30.15;17.30;;;;;;;2.98;54.65;100542.88;1784073;80;20882;-37
2021/11/17 08:31:24;;;;;;;29.32;19.15;;;;;;;3.04;54.01;100531.05;1784186;80;21005;-37
2021/11/17 08:33:52;;;;;;;28.12;18.35;;;;;;;3.04;53.78;100534.27;1784153;80;21169;-38
2021/11/17 08:36:19;;;;;;;29.30;17.98;;;;;;;3.03;53.74;100527.31;1784018;80;21534;-38
2021/11/17 08:38:50;;;;;;;35.90;19.60;;;;;;;3.05;53.56;100528.61;1784001;80;21578;-37
2021/11/17 08:41:15;;;;;;;;;;;;;;;3.08;54.01;100527.27;1783718;79;21041;-38
2021/11/17 08:43:42;;;;;;;34.23;18.90;;;;;;;3.09;53.84;100524.05;1760863;79;20164;-38
2021/11/17 08:46:10;;;;;;;35.00;20.12;;;;;;;3.03;54.39;100526.77;1764182;79;21540;-39
2021/11/17 08:48:37;;;;;;;30.02;18.02;;;;;;;3.15;54.41;100522.36;1759685;80;22027;-38
2021/11/17 08:51:08;;;;;;;32.78;18.10;;;;;;;3.30;54.44;100521.42;1755845;80;20925;-38
2021/11/17 08:53:35;;;;;;;32.85;18.17;;;;;;;3.52;54.47;100517.73;1778512;80;20989;-38
2021/11/17 08:56:05;;;;;;;31.65;19.55;;;;;;;3.75;54.05;100515.59;1789880;80;21028;-38
2021/11/17 08:58:32;;;;;;;29.77;17.55;;;;;;;4.00;53.51;100515.03;1787822;80;21117;-38
2021/11/17 09:00:59;;;;;;;27.98;17.67;;;;;;;4.20;53.09;100519.61;1789846;79;20960;-39
2021/11/17 09:03:26;;;;;;;32.83;18.70;;;;;;;4.42;52.32;100517.69;1788628;80;21004;-39
2021/11/17 09:05:57;;;;;;;29.72;18.15;;;;;;;4.62;51.87;100510.69;1788834;80;20992;-39
2021/11/17 09:08:25;;;;;;;30.50;17.40;;;;;;;4.79;51.36;100512.28;1773740;80;21024;-39
2021/11/17 09:10:55;;;;;;;31.33;17.95;;;;;;;4.92;50.10;100515.33;1764157;80;21123;-39
2021/11/17 09:13:23;;;;;;;28.40;17.02;;;;;;;4.86;50.21;100509.78;1759478;80;21587;-38
2021/11/17 09:15:53;;;;;;;25.92;16.80;;;;;;;4.78;50.38;100508.56;1773119;80;20925;-38
2021/11/17 09:18:22;;;;;;;30.25;16.42;;;;;;;4.67;50.57;100501.20;1792118;78;21017;-38
2021/11/17 09:20:49;;;;;;;27.82;16.10;;;;;;;4.62;50.82;100501.28;1791225;78;21384;-39
2021/11/17 09:23:16;;;;;;;29.65;16.65;;;;;;;4.66;51.11;100497.46;1772650;79;21857;-39
2021/11/17 09:25:43;;;;;;;28.47;16.23;;;;;;;4.74;50.93;100497.59;1758265;81;21060;-38
2021/11/17 09:28:10;;;;;;;26.70;15.08;;;;;;;4.84;50.72;100491.83;1758587;81;21019;-38
2021/11/17 09:30:39;;;;;;;29.82;14.05;;;;;;;4.89;50.35;100486.38;1758258;81;20960;-39
2021/11/17 09:33:10;;;;;;;31.37;14.45;;;;;;;4.96;50.48;100476.03;1779866;78;21078;-38
2021/11/17 09:35:38;;;;;;;25.75;14.75;;;;;;;5.10;50.07;100471.48;1784559;78;21095;-38
2021/11/17 09:38:06;;;;;;;29.92;14.58;;;;;;;5.29;50.02;100470.86;1758536;81;21330;-39
2021/11/17 09:40:40;;;;;;;27.52;14.93;;;;;;;5.45;49.59;100474.87;1759282;80;21578;-40
2021/11/17 09:43:09;;;;;;;22.25;13.30;;;;;;;5.59;49.15;100470.30;1779296;80;21515;-39
2021/11/17 09:45:37;;;;;;;22.55;12.75;;;;;;;5.67;48.21;100468.23;1788855;79;21526;-39
2021/11/17 09:48:04;;;;;;;19.62;11.68;;;;;;;5.71;48.35;100469.80;1781885;79;21064;-39
2021/11/17 09:50:47;;;;;;;22.95;12.13;;;;;;;5.72;47.69;100462.50;1786437;80;20975;-39
2021/11/17 09:53:31;;;;;;;18.90;11.40;;;;;;;5.69;47.89;100455.84;1767596;79;21028;-39
2021/11/17 09:56:03;;;;;;;17.55;10.65;;;;;;;5.69;47.77;100462.56;1767649;80;20997;-38
2021/11/17 09:58:35;;;;;;;15.38;9.03;;;;;;;5.75;47.84;100460.58;1760913;79;21028;-39
2021/11/17 10:01:10;;;;;;;16.90;9.70;;;;;;;5.95;47.06;100458.84;1763838;79;21164;-38
2021/11/17 10:03:52;;;;;;;15.35;9.15;;;;;;;6.15;46.41;100457.03;1767646;79;20973;-39
2021/11/17 10:07:09;;;;;;;12.43;8.88;;;;;;;6.26;44.99;100449.53;1751279;81;21010;-38
2021/11/17 10:10:01;;;;;;;16.93;9.15;;;;;;;6.21;44.83;100448.30;1753984;80;20986;-39
2021/11/17 10:14:35;;;;;;;16.15;9.60;;;;;;;6.16;44.67;100432.26;1753449;79;21100;-39
2021/11/17 10:17:01;;;;;;;14.30;8.38;;;;;;;6.24;44.11;100432.36;1782542;80;21218;-38
2021/11/17 10:19:33;;;;;;;19.02;11.12;;;;;;;6.30;43.96;100429.77;1781816;79;21024;-38
2021/11/17 10:22:07;;;;;;;20.70;11.30;;;;;;;6.40;44.20;100425.49;1769365;79;21112;-38
2021/11/17 10:24:45;;;;;;;28.80;11.03;;;;;;;6.49;44.06;100423.66;1766695;81;21048;-38
2021/11/17 10:27:15;;;;;;;16.35;10.13;;;;;;;6.66;44.58;100423.55;1763509;79;21124;-38
2021/11/17 10:30:02;;;;;;;15.65;10.08;;;;;;;6.88;43.32;100422.95;1771628;80;21492;-38
2021/11/17 10:32:46;;;;;;;12.47;8.70;;;;;;;7.02;42.49;100419.41;1785159;79;21013;-39
2021/11/17 10:35:21;;;;;;;16.02;9.68;;;;;;;7.06;42.03;100415.78;1741393;82;21013;-38
2021/11/17 10:38:24;;;;;;;16.25;9.13;;;;;;;7.19;42.20;100413.53;1744389;81;21855;-39
2021/11/17 10:41:00;;;;;;;18.57;10.05;;;;;;;7.41;41.40;100414.00;1742075;81;21119;-39
2021/11/17 10:43:34;;;;;;;12.68;8.98;;;;;;;7.59;41.36;100417.02;1743522;80;21619;-39
2021/11/17 10:46:15;;;;;;;14.75;9.75;;;;;;;7.77;39.74;100413.78;1764930;79;21048;-36
2021/11/17 10:49:02;;;;;;;15.80;8.98;;;;;;;7.86;39.22;100414.59;1753863;81;21014;-36
2021/11/17 10:51:34;;;;;;;14.68;8.85;;;;;;;7.88;39.04;100412.38;1775208;80;21060;-36
2021/11/17 10:54:08;;;;;;;31.62;19.65;;;;;;;7.95;39.37;100404.59;1754957;80;21072;-36
2021/11/17 10:56:35;;;;;;;16.07;9.88;;;;;;;8.12;38.41;100404.62;1770195;78;21520;-36
2021/11/17 10:59:03;;;;;;;17.48;9.78;;;;;;;8.15;37.96;100395.88;1786803;80;21087;-36
2021/11/17 11:01:41;;;;;;;14.05;9.35;;;;;;;8.08;38.06;100385.32;1780931;80;20987;-36
2021/11/17 11:04:24;;;;;;;14.38;9.98;;;;;;;8.10;38.10;100387.93;1759078;78;20969;-36
2021/11/17 11:06:56;;;;;;;12.98;9.28;;;;;;;8.20;38.07;100379.51;1752839;80;21082;-36
2021/11/17 11:09:44;;;;;;;16.20;10.10;;;;;;;8.43;37.97;100380.15;1760625;80;20981;-36
2021/11/17 11:12:16;;;;;;;15.65;10.05;;;;;;;8.63;37.15;100375.98;1760595;80;20917;-36
2021/11/17 11:14:53;;;;;;;50.17;14.13;;;;;;;8.79;37.43;100362.75;1764405;78;21005;-36
2021/11/17 11:17:37;;;;;;;15.15;9.98;;;;;;;9.01;37.25;100359.25;1764850;80;21028;-36
2021/11/17 11:20:24;;;;;;;13.40;9.90;;;;;;;9.16;36.66;100362.77;1784363;79;21178;-36
2021/11/17 11:23:08;;;;;;;17.82;9.50;;;;;;;9.16;36.17;100359.27;1762674;80;20922;-36
2021/11/17 11:26:05;;;;;;;17.12;10.38;;;;;;;9.26;35.81;100352.13;1727600;81;21487;-37
2021/11/17 11:28:39;;;;;;;18.12;9.75;;;;;;;9.44;34.98;100348.80;1716338;83;21018;-37
2021/11/17 11:31:11;;;;;;;18.67;11.70;;;;;;;9.51;35.25;100343.64;1736237;80;21516;-36
2021/11/17 11:33:49;;;;;;;18.10;11.80;;;;;;;9.75;35.20;100343.00;1729758;81;21116;-36
2021/11/17 11:36:24;;;;;;;20.72;10.93;;;;;;;9.91;34.67;100346.72;1736764;81;20956;-37
2021/11/17 11:39:03;;;;;;;18.20;11.22;;;;;;;10.00;34.65;100341.46;1741187;81;21510;-37
2021/11/17 11:41:51;;;;;;;16.60;10.98;;;;;;;10.13;34.35;100342.30;1741944;80;21056;-36
2021/11/17 11:44:23;;;;;;;15.75;9.53;;;;;;;10.29;33.76;100343.87;1719681;80;21629;-36
2021/11/17 11:47:00;;;;;;;14.58;9.53;;;;;;;10.38;33.58;100336.44;1744016;80;21060;-36
2021/11/17 11:49:53;;;;;;;17.15;11.85;;;;;;;10.49;33.54;100336.26;1735574;81;20972;-36
2021/11/17 11:52:31;;;;;;;20.45;11.18;;;;;;;10.40;33.11;100282.70;1725245;82;21042;-37
2021/11/17 11:55:11;;;;;;;16.55;10.40;;;;;;;10.69;33.34;100322.41;1727218;83;21484;-37
2021/11/17 11:57:49;;;;;;;17.48;10.98;;;;;;;10.77;32.57;100317.44;1713960;82;21045;-37
2021/11/17 12:00:26;;;;;;;15.32;10.82;;;;;;;10.86;32.56;100319.48;1690108;83;21096;-37
2021/11/17 12:03:05;;;;;;;15.25;10.55;;;;;;;10.88;32.34;100311.25;1702474;83;20974;-37
2021/11/17 12:05:46;;;;;;;13.35;10.05;;;;;;;10.97;32.07;100318.48;1721362;81;21010;-37
2021/11/17 12:08:27;;;;;;;13.43;9.95;;;;;;;10.95;31.90;100316.66;1708906;83;20966;-36
2021/11/17 12:11:08;;;;;;;14.87;9.53;;;;;;;10.87;32.35;100314.29;1697121;84;21002;-36
2021/11/17 12:13:45;;;;;;;16.12;8.90;;;;;;;10.66;31.45;100314.37;1709853;81;21105;-36
2021/11/17 12:16:22;;;;;;;15.58;10.23;;;;;;;10.03;32.10;100308.28;1704675;83;21033;-36
2021/11/17 12:18:54;;;;;;;18.50;11.40;;;;;;;9.38;33.29;100312.20;1724873;83;20962;-36
2021/11/17 12:21:32;;;;;;;18.07;10.48;;;;;;;8.85;34.41;100297.92;1698723;84;21085;-36
2021/11/17 12:24:13;;;;;;;17.05;10.38;;;;;;;8.43;34.80;100306.39;1695962;83;21094;-36
2021/11/17 12:26:45;;;;;;;17.12;10.28;;;;;;;7.99;35.31;100309.69;1699720;83;21543;-36
2021/11/17 12:29:20;;;;;;;15.43;9.93;;;;;;;7.52;35.90;100307.93;1698707;83;20943;-36
2021/11/17 12:32:12;;;;;;;18.42;10.58;;;;;;;7.13;36.68;100305.55;1698722;84;21033;-36
2021/11/17 12:35:05;;;;;;;18.17;10.90;;;;;;;6.82;37.34;100304.83;1698998;83;20938;-36
2021/11/17 12:37:53;;;;;;;15.32;10.43;;;;;;;6.43;37.93;100300.20;1698717;84;21524;-36
2021/11/17 12:40:48;;;;;;;21.15;10.82;;;;;;;6.04;38.67;100296.87;1703407;83;21144;-36
2021/11/17 12:43:41;;;;;;;18.73;12.07;;;;;;;5.82;39.41;100299.50;1698635;84;21010;-36
2021/11/17 12:46:15;;;;;;;19.95;12.53;;;;;;;5.66;40.00;100294.47;1698756;83;20990;-35
2021/11/17 12:48:47;;;;;;;20.30;13.30;;;;;;;5.54;40.36;100292.88;1697396;84;21074;-35
2021/11/17 12:51:19;;;;;;;17.87;11.90;;;;;;;5.44;40.48;100291.75;1692503;83;21556;-36
2021/11/17 12:53:58;;;;;;;18.57;11.43;;;;;;;5.35;40.61;100290.88;1725407;83;21831;-36
2021/11/17 12:56:39;;;;;;;16.48;11.18;;;;;;;5.32;40.72;100298.20;1699051;83;21040;-36
2021/11/17 12:59:14;;;;;;;19.95;11.40;;;;;;;5.21;40.89;100293.59;1727739;81;20989;-36
2021/11/17 13:01:46;;;;;;;19.55;12.37;;;;;;;5.08;41.09;100289.58;1714060;83;21071;-38
2021/11/17 13:04:18;;;;;;;61.80;15.30;;;;;;;4.96;41.33;100290.61;1726896;83;21541;-36
2021/11/17 13:06:52;;;;;;;19.98;13.00;;;;;;;4.90;41.56;100289.91;1754005;81;20956;-36
2021/11/17 13:09:30;;;;;;;21.87;12.82;;;;;;;4.78;41.71;100285.59;1749072;81;20964;-36
2021/11/17 13:12:14;;;;;;;22.10;12.45;;;;;;;4.71;41.92;100288.67;1734041;81;21522;-36
2021/11/17 13:14:48;;;;;;;19.40;12.20;;;;;;;4.60;42.07;100283.23;1726543;83;21023;-36
2021/11/17 13:17:26;;;;;;;20.45;12.05;;;;;;;4.47;42.33;100284.02;1727196;83;21067;-36
2021/11/17 13:19:56;;;;;;;20.85;12.37;;;;;;;4.41;42.56;100285.73;1721682;81;21974;-36
2021/11/17 13:22:34;;;;;;;25.20;13.43;;;;;;;4.37;42.66;100284.20;1727275;83;21035;-35
2021/11/17 13:25:21;;;;;;;25.32;14.60;;;;;;;4.32;42.87;100281.59;1735327;81;20960;-36
2021/11/17 13:27:59;;;;;;;24.82;14.18;;;;;;;4.26;43.13;100282.80;1727061;83;21004;-35
2021/11/17 13:30:48;;;;;;;28.83;15.65;;;;;;;4.20;43.36;100286.66;1726939;83;21502;-35
2021/11/17 13:33:30;;;;;;;28.15;16.52;;;;;;;4.14;43.54;100291.84;1726992;83;21857;-35
2021/11/17 13:36:10;;;;;;;27.40;16.32;;;;;;;4.09;43.78;100284.68;1727283;81;21036;-35
2021/11/17 13:38:57;;;;;;;25.08;15.20;;;;;;;4.09;43.79;100280.66;1727215;83;21007;-35
2021/11/17 13:41:24;;;;;;;23.60;14.95;;;;;;;4.04;43.87;100283.96;1727048;83;21013;-36
2021/11/17 13:43:50;;;;;;;24.15;14.70;;;;;;;3.96;44.13;100280.61;1701277;83;21051;-35
2021/11/17 13:46:20;;;;;;;23.98;14.43;;;;;;;3.88;44.28;100283.41;1696649;83;22420;-36
2021/11/17 13:48:49;;;;;;;29.27;14.25;;;;;;;3.81;44.48;100281.11;1712202;82;21227;-39
2021/11/17 13:51:20;;;;;;;22.95;13.70;;;;;;;3.74;44.60;100273.97;1742591;80;21028;-39
2021/11/17 13:53:47;;;;;;;24.37;14.28;;;;;;;3.68;44.78;100273.02;1705512;82;21101;-38
2021/11/17 13:56:28;;;;;;;21.70;14.53;;;;;;;3.60;44.99;100267.75;1704014;83;21022;-39
2021/11/17 13:58:55;;;;;;;28.85;15.75;;;;;;;3.54;45.14;100264.88;1719620;82;21106;-38
2021/11/17 14:01:22;;;;;;;24.90;15.40;;;;;;;3.45;45.35;100268.77;1724375;81;21042;-38
2021/11/17 14:03:49;;;;;;;29.55;16.17;;;;;;;3.41;45.46;100273.11;1724087;82;21148;-39
2021/11/17 14:06:17;;;;;;;25.72;15.03;;;;;;;3.38;45.57;100271.56;1721366;82;20975;-39
2021/11/17 14:08:46;;;;;;;28.30;16.07;;;;;;;3.35;45.67;100272.13;1728977;81;21096;-40
2021/11/17 14:11:13;;;;;;;31.10;16.25;;;;;;;3.31;45.77;100271.11;1717696;82;21099;-39
2021/11/17 14:13:41;;;;;;;29.42;16.32;;;;;;;3.28;45.91;100270.36;1731980;81;21014;-39
2021/11/17 14:16:08;;;;;;;29.37;16.45;;;;;;;3.21;45.98;100268.56;1725070;82;21049;-39
2021/11/17 14:18:36;;;;;;;30.77;16.45;;;;;;;3.18;46.10;100269.15;1720456;81;20950;-39
2021/11/17 14:21:05;;;;;;;26.95;15.63;;;;;;;3.13;46.23;100270.55;1741591;80;21079;-39
2021/11/17 14:23:31;;;;;;;28.02;16.82;;;;;;;3.04;46.42;100251.66;1723253;82;22025;-39
2021/11/17 14:25:58;;;;;;;34.75;17.50;;;;;;;3.01;46.56;100260.24;1729262;82;21487;-39
2021/11/17 14:28:28;;;;;;;31.50;16.45;;;;;;;2.93;46.71;100261.69;1728166;82;21076;-39
2021/11/17 14:31:05;;;;;;;30.02;17.17;;;;;;;2.86;46.94;100258.55;1729916;82;21036;-39
2021/11/17 14:33:32;;;;;;;29.32;17.65;;;;;;;2.85;46.97;100262.34;1730847;82;21129;-39